createdAt,value
2018-03-22T00:00:46.916Z,99893.55
2018-03-22T00:03:13.346Z,99897.91
2018-03-22T00:05:39.738Z,99899.41
2018-03-22T00:08:06.263Z,99897.77
2018-03-22T00:10:32.706Z,99912.95
2018-03-22T00:12:59.102Z,99919.50
2018-03-22T00:15:25.602Z,99922.52
2018-03-22T00:17:52.076Z,99913.20
2018-03-22T00:20:18.491Z,99914.48
2018-03-22T00:22:44.877Z,99910.09
2018-03-22T00:25:11.354Z,99906.77
2018-03-22T00:27:37.740Z,99931.01
2018-03-22T00:30:04.215Z,99923.45
2018-03-22T00:32:30.711Z,99930.51
2018-03-22T00:34:57.188Z,99935.30
2018-03-22T00:37:23.617Z,99936.94
2018-03-22T00:39:50.068Z,99942.63
2018-03-22T00:42:16.462Z,99954.84
2018-03-22T00:44:44.842Z,99956.66
2018-03-22T00:47:11.558Z,99960.80
2018-03-22T00:49:37.969Z,99954.55
2018-03-22T00:52:04.711Z,99953.57
2018-03-22T00:54:31.148Z,99943.83
2018-03-22T00:56:57.565Z,99933.74
2018-03-22T00:59:23.979Z,99938.30
2018-03-22T01:01:50.409Z,99933.13
2018-03-22T01:04:16.846Z,99920.82
2018-03-22T01:06:43.489Z,99913.98
2018-03-22T01:09:09.853Z,99915.28
2018-03-22T01:11:36.250Z,99905.56
2018-03-22T01:14:02.758Z,99909.36
2018-03-22T01:16:29.399Z,99902.97
2018-03-22T01:18:55.766Z,99896.08
2018-03-22T01:21:22.266Z,99894.39
2018-03-22T01:23:48.678Z,99891.42
2018-03-22T01:26:15.111Z,99909.80
2018-03-22T01:28:41.593Z,99916.75
2018-03-22T01:31:07.974Z,99908.34
2018-03-22T01:33:34.506Z,99903.47
2018-03-22T01:36:01.174Z,99910.09
2018-03-22T01:38:27.574Z,99908.94
2018-03-22T01:40:54.128Z,99912.96
2018-03-22T01:43:20.598Z,99918.38
2018-03-22T01:45:47.010Z,99913.33
2018-03-22T01:48:13.483Z,99916.73
2018-03-22T01:50:39.854Z,99924.76
2018-03-22T01:53:14.328Z,99919.49
2018-03-22T01:55:40.678Z,99916.39
2018-03-22T01:58:07.181Z,99913.79
2018-03-22T02:00:33.618Z,99904.85
2018-03-22T02:03:00.002Z,99901.82
2018-03-22T02:05:26.562Z,99906.19
2018-03-22T02:07:53.174Z,99916.99
2018-03-22T02:10:19.558Z,99915.38
2018-03-22T02:12:45.991Z,99910.90
2018-03-22T02:15:12.417Z,99909.25
2018-03-22T02:17:38.937Z,99904.95
2018-03-22T02:20:05.385Z,99899.51
2018-03-22T02:22:31.855Z,99910.61
2018-03-22T02:24:58.234Z,99913.27
2018-03-22T02:27:24.666Z,99916.28
2018-03-22T02:29:51.020Z,99931.94
2018-03-22T02:32:17.383Z,99935.04
2018-03-22T02:34:43.766Z,99928.64
2018-03-22T02:37:10.147Z,99924.46
2018-03-22T02:39:36.618Z,99923.23
2018-03-22T02:42:03.114Z,99918.68
2018-03-22T02:44:29.565Z,99928.17
2018-03-22T02:46:55.994Z,99928.27
2018-03-22T02:49:22.500Z,99915.97
2018-03-22T02:51:48.892Z,99893.56
2018-03-22T02:54:15.248Z,99915.66
2018-03-22T02:56:41.662Z,99922.43
2018-03-22T02:59:08.027Z,99930.41
2018-03-22T03:01:34.444Z,99942.02
2018-03-22T03:04:00.918Z,99937.97
2018-03-22T03:06:27.337Z,99947.55
2018-03-22T03:08:53.754Z,99945.88
2018-03-22T03:11:20.229Z,99947.89
2018-03-22T03:13:46.844Z,99948.42
2018-03-22T03:16:13.310Z,99954.09
2018-03-22T03:18:39.741Z,99960.72
2018-03-22T03:21:06.110Z,99964.77
2018-03-22T03:23:32.481Z,99962.94
2018-03-22T03:25:58.912Z,99964.86
2018-03-22T03:28:25.374Z,99968.18
2018-03-22T03:30:51.726Z,99970.58
2018-03-22T03:33:18.166Z,99978.50
2018-03-22T03:35:44.578Z,99982.53
2018-03-22T03:38:10.971Z,99984.89
2018-03-22T03:40:37.381Z,99984.34
2018-03-22T03:43:03.845Z,99989.81
2018-03-22T03:45:30.310Z,99992.63
2018-03-22T03:47:56.759Z,99991.30
2018-03-22T03:50:23.179Z,99974.69
2018-03-22T03:52:49.602Z,99984.48
2018-03-22T03:55:16.062Z,99984.67
2018-03-22T03:57:42.538Z,99982.23
2018-03-22T04:00:09.692Z,99982.28
2018-03-22T04:02:37.056Z,99987.88
2018-03-22T04:05:04.399Z,99982.40
2018-03-22T04:07:30.787Z,99984.95
2018-03-22T04:09:57.202Z,99991.42
2018-03-22T04:12:23.657Z,99990.35
2018-03-22T04:14:50.092Z,100002.11
2018-03-22T04:17:16.528Z,100001.08
2018-03-22T04:19:42.999Z,100003.61
2018-03-22T04:22:09.441Z,100009.19
2018-03-22T04:24:35.878Z,100001.14
2018-03-22T04:27:02.298Z,100008.40
2018-03-22T04:29:28.658Z,99996.53
2018-03-22T04:31:55.085Z,99987.09
2018-03-22T04:34:21.532Z,99987.39
2018-03-22T04:36:47.914Z,99991.85
2018-03-22T04:39:14.414Z,99996.94
2018-03-22T04:41:40.773Z,100007.20
2018-03-22T04:44:07.138Z,100010.03
2018-03-22T04:46:33.513Z,100019.10
2018-03-22T04:48:59.934Z,100020.72
2018-03-22T04:51:26.412Z,100030.11
2018-03-22T04:53:52.846Z,100024.91
2018-03-22T04:56:19.269Z,100030.66
2018-03-22T04:58:45.683Z,100035.22
2018-03-22T05:01:12.126Z,100029.33
2018-03-22T05:03:38.594Z,100032.63
2018-03-22T05:06:04.978Z,100024.13
2018-03-22T05:08:31.398Z,100021.55
2018-03-22T05:10:57.813Z,100026.06
2018-03-22T05:13:24.362Z,100030.28
2018-03-22T05:15:50.825Z,100026.16
2018-03-22T05:18:17.230Z,100028.86
2018-03-22T05:20:43.654Z,100021.86
2018-03-22T05:23:10.089Z,100022.34
2018-03-22T05:25:36.477Z,100011.52
2018-03-22T05:28:02.913Z,100003.52
2018-03-22T05:30:29.318Z,100003.44
2018-03-22T05:32:55.739Z,100014.34
2018-03-22T05:35:22.147Z,100014.80
2018-03-22T05:37:48.535Z,100023.17
2018-03-22T05:40:15.066Z,100019.55
2018-03-22T05:42:41.509Z,100009.11
2018-03-22T05:45:08.045Z,100010.27
2018-03-22T05:47:34.476Z,100002.81
2018-03-22T05:50:00.902Z,100007.42
2018-03-22T05:52:27.298Z,100002.46
2018-03-22T05:54:53.693Z,100006.23
2018-03-22T05:57:20.145Z,100007.63
2018-03-22T05:59:46.559Z,100002.50
2018-03-22T06:02:13.074Z,100011.77
2018-03-22T06:04:40.433Z,100011.20
2018-03-22T06:07:07.021Z,100009.69
2018-03-22T06:09:33.648Z,100010.86
2018-03-22T06:12:00.090Z,100000.70
2018-03-22T06:14:26.681Z,100002.98
2018-03-22T06:16:53.416Z,100000.16
2018-03-22T06:19:19.906Z,99999.13
2018-03-22T06:21:46.389Z,99997.22
2018-03-22T06:24:12.877Z,99977.36
2018-03-22T06:26:39.392Z,100014.70
2018-03-22T06:29:05.990Z,100013.39
2018-03-22T06:31:32.467Z,100017.52
2018-03-22T06:33:58.882Z,100050.73
2018-03-22T06:36:26.477Z,100061.85
2018-03-22T06:38:53.065Z,100072.53
2018-03-22T06:41:19.554Z,100070.41
2018-03-22T06:43:46.150Z,100074.56
2018-03-22T06:46:12.669Z,100074.87
2018-03-22T06:48:39.160Z,100075.96
2018-03-22T06:51:05.742Z,100073.09
2018-03-22T06:53:32.386Z,100071.41
2018-03-22T06:55:58.932Z,100070.11
2018-03-22T06:58:25.369Z,100062.34
2018-03-22T07:00:52.039Z,100043.43
2018-03-22T07:03:18.502Z,100047.42
2018-03-22T07:05:44.953Z,100053.45
2018-03-22T07:08:11.518Z,100061.46
2018-03-22T07:10:38.176Z,100053.36
2018-03-22T07:13:04.689Z,100049.50
2018-03-22T07:15:31.137Z,100043.77
2018-03-22T07:17:57.547Z,100048.14
2018-03-22T07:20:24.045Z,100053.30
2018-03-22T07:22:50.494Z,100059.12
2018-03-22T07:25:16.971Z,100062.41
2018-03-22T07:27:43.722Z,100084.30
2018-03-22T07:30:10.204Z,100069.11
2018-03-22T07:32:36.622Z,100062.55
2018-03-22T07:35:03.113Z,100074.18
2018-03-22T07:37:29.630Z,100065.81
2018-03-22T07:39:56.043Z,100067.54
2018-03-22T07:42:22.606Z,100073.10
2018-03-22T07:44:49.084Z,100072.23
2018-03-22T07:47:15.612Z,100067.08
2018-03-22T07:49:42.049Z,100060.69
2018-03-22T07:52:08.472Z,100067.02
2018-03-22T07:54:35.046Z,100068.77
2018-03-22T07:57:01.526Z,100069.58
2018-03-22T07:59:27.978Z,100071.63
2018-03-22T08:01:54.526Z,100072.20
2018-03-22T08:04:20.992Z,100078.30
2018-03-22T08:06:47.334Z,100076.57
2018-03-22T08:09:13.862Z,100057.33
2018-03-22T08:11:40.346Z,100059.81
2018-03-22T08:14:06.865Z,100050.87
2018-03-22T08:16:33.366Z,100051.45
2018-03-22T08:18:59.893Z,100042.80
2018-03-22T08:21:26.274Z,100048.94
2018-03-22T08:23:52.675Z,100046.28
2018-03-22T08:26:19.211Z,100044.61
2018-03-22T08:28:45.651Z,100030.25
2018-03-22T08:31:12.139Z,100032.53
2018-03-22T08:33:38.526Z,100032.27
2018-03-22T08:36:05.113Z,100034.19
2018-03-22T08:38:31.541Z,100030.56
2018-03-22T08:40:57.949Z,100028.37
2018-03-22T08:43:24.394Z,100019.17
2018-03-22T08:45:50.840Z,100014.37
2018-03-22T08:48:17.285Z,100008.94
2018-03-22T08:50:43.645Z,100007.46
2018-03-22T08:53:10.122Z,100003.30
2018-03-22T08:55:36.538Z,99994.48
2018-03-22T08:58:02.998Z,99994.09
2018-03-22T09:00:29.462Z,99990.61
2018-03-22T09:02:55.873Z,99994.41
2018-03-22T09:05:22.458Z,99996.14
2018-03-22T09:07:48.924Z,99988.71
2018-03-22T09:10:15.381Z,99989.34
2018-03-22T09:12:41.770Z,99999.56
2018-03-22T09:15:08.241Z,99987.63
2018-03-22T09:17:34.666Z,99990.39
2018-03-22T09:20:01.029Z,99988.15
2018-03-22T09:22:27.432Z,99987.98
2018-03-22T09:24:53.966Z,99988.67
2018-03-22T09:27:20.381Z,99986.63
2018-03-22T09:29:46.785Z,99982.00
2018-03-22T09:32:13.234Z,99984.77
2018-03-22T09:34:39.694Z,99972.81
2018-03-22T09:37:06.201Z,99958.30
2018-03-22T09:39:32.664Z,99953.11
2018-03-22T09:41:59.202Z,99951.52
2018-03-22T09:44:25.663Z,99959.35
2018-03-22T09:46:52.106Z,99950.34
2018-03-22T09:49:18.519Z,99947.64
2018-03-22T09:51:44.971Z,99943.09
2018-03-22T09:54:11.526Z,99939.59
2018-03-22T09:56:38.114Z,99936.11
2018-03-22T09:59:04.681Z,99930.81
2018-03-22T10:01:31.253Z,99923.28
2018-03-22T10:03:57.821Z,99917.39
2018-03-22T10:06:24.370Z,99905.39
2018-03-22T10:08:50.902Z,99904.65
2018-03-22T10:11:17.471Z,99899.19
2018-03-22T10:13:43.953Z,99897.27
2018-03-22T10:16:10.410Z,99894.25
2018-03-22T10:18:36.842Z,99879.63
2018-03-22T10:21:03.299Z,99869.12
2018-03-22T10:23:29.846Z,99870.80
2018-03-22T10:25:56.358Z,99856.15
2018-03-22T10:28:22.814Z,99844.50
2018-03-22T10:30:49.243Z,99843.64
2018-03-22T10:33:15.702Z,99837.48
2018-03-22T10:35:42.105Z,99838.86
2018-03-22T10:38:08.624Z,99831.68
2018-03-22T10:40:35.051Z,99835.77
2018-03-22T10:43:01.424Z,99823.16
2018-03-22T10:45:27.902Z,99821.50
2018-03-22T10:47:54.322Z,99816.08
2018-03-22T10:50:20.833Z,99828.65
2018-03-22T10:52:47.202Z,99836.48
2018-03-22T10:55:13.630Z,99820.07
2018-03-22T10:57:40.010Z,99814.94
2018-03-22T11:00:06.560Z,99816.27
2018-03-22T11:02:39.022Z,99813.22
2018-03-22T11:05:05.523Z,99793.36
2018-03-22T11:07:32.118Z,99803.48
2018-03-22T11:09:58.494Z,99805.28
2018-03-22T11:12:24.925Z,99805.13
2018-03-22T11:14:51.342Z,99802.79
2018-03-22T11:17:17.841Z,99801.80
2018-03-22T11:19:44.748Z,99804.10
2018-03-22T11:22:13.839Z,99797.54
2018-03-22T11:24:41.071Z,99795.50
2018-03-22T11:27:07.609Z,99796.66
2018-03-22T11:29:33.982Z,99792.13
2018-03-22T11:32:00.410Z,99780.67
2018-03-22T11:34:26.846Z,99776.30
2018-03-22T11:36:53.301Z,99783.87
2018-03-22T11:39:19.742Z,99786.38
2018-03-22T11:41:46.149Z,99792.30
2018-03-22T11:44:12.661Z,99788.39
2018-03-22T11:46:39.065Z,99789.42
2018-03-22T11:49:05.631Z,99785.34
2018-03-22T11:51:32.038Z,99785.23
2018-03-22T11:53:58.442Z,99797.89
2018-03-22T11:56:24.867Z,99797.84
2018-03-22T11:58:51.266Z,99786.92
2018-03-22T12:01:17.675Z,99788.32
2018-03-22T12:03:44.168Z,99781.20
2018-03-22T12:06:10.887Z,99766.66
2018-03-22T12:08:37.299Z,99762.61
2018-03-22T12:11:03.883Z,99752.48
2018-03-22T12:13:30.503Z,99752.19
2018-03-22T12:15:56.906Z,99743.64
2018-03-22T12:18:23.330Z,99733.54
2018-03-22T12:20:49.715Z,99716.30
2018-03-22T12:23:16.456Z,99713.50
2018-03-22T12:25:42.870Z,99708.22
2018-03-22T12:28:09.302Z,99712.72
2018-03-22T12:30:35.786Z,99704.00
2018-03-22T12:33:02.265Z,99691.91
2018-03-22T12:35:28.734Z,99694.58
2018-03-22T12:37:55.114Z,99709.67
2018-03-22T12:40:21.497Z,99702.83
2018-03-22T12:42:47.963Z,99696.63
2018-03-22T12:45:14.582Z,99699.13
2018-03-22T12:47:41.183Z,99701.86
2018-03-22T12:50:07.689Z,99705.37
2018-03-22T12:52:34.148Z,99703.19
2018-03-22T12:55:00.593Z,99709.05
2018-03-22T12:57:27.137Z,99707.92
2018-03-22T12:59:53.586Z,99710.34
2018-03-22T13:02:20.150Z,99693.16
2018-03-22T13:04:46.617Z,99692.83
2018-03-22T13:07:12.982Z,99683.52
2018-03-22T13:09:39.386Z,99681.59
2018-03-22T13:12:05.873Z,99678.52
2018-03-22T13:14:32.298Z,99685.16
2018-03-22T13:16:58.791Z,99673.00
2018-03-22T13:19:25.398Z,99679.03
2018-03-22T13:21:51.863Z,99666.80
2018-03-22T13:24:18.261Z,99665.14
2018-03-22T13:26:44.649Z,99664.98
2018-03-22T13:29:11.227Z,99672.90
2018-03-22T13:31:37.690Z,99663.95
2018-03-22T13:34:04.159Z,99665.45
2018-03-22T13:36:30.618Z,99676.64
2018-03-22T13:38:57.034Z,99674.95
2018-03-22T13:41:23.478Z,99677.27
2018-03-22T13:43:49.903Z,99674.73
2018-03-22T13:46:16.334Z,99657.19
2018-03-22T13:48:42.795Z,99658.97
2018-03-22T13:51:09.283Z,99639.66
2018-03-22T13:53:35.694Z,99631.38
2018-03-22T13:56:02.190Z,99624.61
2018-03-22T13:58:28.586Z,99623.64
2018-03-22T14:00:54.994Z,99622.62
2018-03-22T14:03:21.382Z,99627.98
2018-03-22T14:05:47.861Z,99608.47
2018-03-22T14:08:14.299Z,99605.91
2018-03-22T14:10:40.709Z,99599.45
2018-03-22T14:13:07.105Z,99615.70
2018-03-22T14:15:33.522Z,99600.77
2018-03-22T14:17:59.961Z,99605.49
2018-03-22T14:20:26.417Z,99599.19
2018-03-22T14:22:52.955Z,99596.58
2018-03-22T14:25:19.335Z,99594.34
2018-03-22T14:27:45.789Z,99593.29
2018-03-22T14:30:12.210Z,99595.55
2018-03-22T14:32:38.750Z,99572.39
2018-03-22T14:35:05.222Z,99569.70
2018-03-22T14:37:31.708Z,99574.69
2018-03-22T14:39:58.194Z,99565.31
2018-03-22T14:42:24.666Z,99569.98
2018-03-22T14:44:51.162Z,99575.89
2018-03-22T14:47:17.633Z,99570.08
2018-03-22T14:49:44.138Z,99549.31
2018-03-22T14:52:10.646Z,99556.30
2018-03-22T14:54:37.038Z,99554.41
2018-03-22T14:57:03.448Z,99556.47
2018-03-22T14:59:30.010Z,99539.00
2018-03-22T15:01:56.485Z,99531.06
2018-03-22T15:04:22.942Z,99525.25
2018-03-22T15:06:49.370Z,99518.81
2018-03-22T15:09:15.817Z,99525.30
2018-03-22T15:11:42.309Z,99525.88
2018-03-22T15:14:08.737Z,99519.29
2018-03-22T15:16:35.164Z,99521.05
2018-03-22T15:19:01.619Z,99514.92
2018-03-22T15:21:28.235Z,99510.69
2018-03-22T15:23:54.654Z,99531.91
2018-03-22T15:26:21.313Z,99530.20
2018-03-22T15:28:47.784Z,99507.53
2018-03-22T15:31:14.360Z,99503.58
2018-03-22T15:33:40.810Z,99513.20
2018-03-22T15:36:07.306Z,99496.98
2018-03-22T15:38:33.759Z,99514.51
2018-03-22T15:41:00.176Z,99519.52
2018-03-22T15:43:26.629Z,99508.02
2018-03-22T15:45:53.011Z,99504.97
2018-03-22T15:48:19.447Z,99502.30
2018-03-22T15:50:46.026Z,99518.70
2018-03-22T15:53:12.486Z,99511.50
2018-03-22T15:55:39.099Z,99514.77
2018-03-22T15:58:05.609Z,99526.72
2018-03-22T16:00:32.030Z,99534.34
2018-03-22T16:02:58.496Z,99545.15
2018-03-22T16:05:25.082Z,99544.89
2018-03-22T16:07:51.637Z,99547.73
2018-03-22T16:10:18.064Z,99542.23
2018-03-22T16:12:44.522Z,99541.11
2018-03-22T16:15:11.060Z,99536.45
2018-03-22T16:17:37.507Z,99548.71
2018-03-22T16:20:03.914Z,99530.27
2018-03-22T16:22:30.382Z,99525.52
2018-03-22T16:24:56.858Z,99524.31
2018-03-22T16:27:23.386Z,99515.16
2018-03-22T16:29:49.903Z,99505.55
2018-03-22T16:32:16.246Z,99497.56
2018-03-22T16:34:43.371Z,99509.36
2018-03-22T16:37:10.431Z,99514.27
2018-03-22T16:39:37.073Z,99502.41
2018-03-22T16:42:03.560Z,99505.09
2018-03-22T16:44:30.161Z,99515.55
2018-03-22T16:46:56.654Z,99494.35
2018-03-22T16:49:23.165Z,99473.92
2018-03-22T16:51:49.747Z,99457.23
2018-03-22T16:54:16.180Z,99448.95
2018-03-22T16:56:42.644Z,99458.75
2018-03-22T16:59:09.113Z,99441.94
2018-03-22T17:01:35.630Z,99430.30
2018-03-22T17:04:01.993Z,99413.72
2018-03-22T17:06:28.426Z,99409.55
2018-03-22T17:08:55.002Z,99409.49
2018-03-22T17:11:21.394Z,99399.75
2018-03-22T17:13:47.829Z,99425.64
2018-03-22T17:16:14.218Z,99442.38
2018-03-22T17:18:40.597Z,99412.60
2018-03-22T17:21:07.125Z,99438.00
2018-03-22T17:23:33.508Z,99454.48
2018-03-22T17:25:59.995Z,99462.68
2018-03-22T17:28:26.424Z,99488.50
2018-03-22T17:30:52.819Z,99458.90
2018-03-22T17:33:19.234Z,99449.00
2018-03-22T17:35:45.629Z,99441.74
2018-03-22T17:38:11.997Z,99441.92
2018-03-22T17:40:38.431Z,99424.78
2018-03-22T17:43:04.834Z,99432.83
2018-03-22T17:45:31.254Z,99424.14
2018-03-22T17:47:57.647Z,99406.57
2018-03-22T17:50:24.050Z,99414.25
2018-03-22T17:52:50.462Z,99408.02
2018-03-22T17:55:16.942Z,99417.72
2018-03-22T17:57:43.524Z,99428.31
2018-03-22T18:00:09.958Z,99432.66
2018-03-22T18:02:36.345Z,99427.87
2018-03-22T18:05:02.861Z,99419.53
2018-03-22T18:07:29.327Z,99419.14
2018-03-22T18:09:55.730Z,99411.42
2018-03-22T18:12:22.188Z,99428.33
2018-03-22T18:14:48.686Z,99453.80
2018-03-22T18:17:15.198Z,99461.94
2018-03-22T18:19:41.580Z,99454.01
2018-03-22T18:22:07.923Z,99429.91
2018-03-22T18:24:34.289Z,99403.55
2018-03-22T18:27:00.680Z,99363.20
2018-03-22T18:29:27.066Z,99338.28
2018-03-22T18:31:53.489Z,99321.05
2018-03-22T18:34:20.006Z,99302.02
2018-03-22T18:36:46.391Z,99297.97
2018-03-22T18:39:12.829Z,99277.79
2018-03-22T18:41:39.378Z,99281.97
2018-03-22T18:44:05.966Z,99267.92
2018-03-22T18:46:32.898Z,99259.00
2018-03-22T18:48:59.536Z,99258.66
2018-03-22T18:51:26.353Z,99265.69
2018-03-22T18:53:53.026Z,99266.83
2018-03-22T18:56:19.526Z,99268.86
2018-03-22T18:58:46.881Z,99263.51
2018-03-22T19:01:13.397Z,99266.80
2018-03-22T19:03:39.975Z,99262.70
2018-03-22T19:06:06.593Z,99263.60
2018-03-22T19:08:33.002Z,99259.23
2018-03-22T19:10:59.517Z,99274.05
2018-03-22T19:13:26.296Z,99291.08
2018-03-22T19:15:52.792Z,99310.01
2018-03-22T19:18:19.279Z,99329.84
2018-03-22T19:20:45.697Z,99319.33
2018-03-22T19:23:12.199Z,99320.03
2018-03-22T19:25:38.585Z,99321.72
2018-03-22T19:28:05.102Z,99328.91
2018-03-22T19:30:31.637Z,99326.60
2018-03-22T19:32:58.078Z,99301.84
2018-03-22T19:35:24.550Z,99277.16
2018-03-22T19:37:51.054Z,99250.45
2018-03-22T19:40:17.537Z,99254.14
2018-03-22T19:42:43.973Z,99243.50
2018-03-22T19:45:10.428Z,99227.36
2018-03-22T19:47:36.911Z,99228.81
2018-03-22T19:50:03.314Z,99219.31
2018-03-22T19:52:29.797Z,99198.67
2018-03-22T19:54:56.505Z,99181.56
2018-03-22T19:57:22.941Z,99176.66
2018-03-22T19:59:49.481Z,99168.77
2018-03-22T20:02:15.926Z,99167.75
2018-03-22T20:04:42.326Z,99145.07
2018-03-22T20:07:08.762Z,99141.25
2018-03-22T20:09:35.197Z,99148.31
2018-03-22T20:12:01.799Z,99158.42
2018-03-22T20:14:28.178Z,99151.56
2018-03-22T20:16:54.590Z,99147.42
2018-03-22T20:19:21.099Z,99143.62
2018-03-22T20:21:47.869Z,99135.41
2018-03-22T20:24:14.346Z,99141.93
2018-03-22T20:26:40.845Z,99127.70
2018-03-22T20:29:07.304Z,99119.81
2018-03-22T20:31:33.749Z,99115.83
2018-03-22T20:34:00.190Z,99117.83
2018-03-22T20:36:26.790Z,99128.25
2018-03-22T20:38:53.228Z,99125.92
2018-03-22T20:41:19.610Z,99124.35
2018-03-22T20:43:45.995Z,99112.77
2018-03-22T20:46:12.399Z,99111.35
2018-03-22T20:48:38.798Z,99111.52
2018-03-22T20:51:05.162Z,99111.32
2018-03-22T20:53:31.517Z,99101.84
2018-03-22T20:55:58.026Z,99082.05
2018-03-22T20:58:24.402Z,99060.83
2018-03-22T21:00:50.794Z,99039.75
2018-03-22T21:03:17.277Z,99032.44
2018-03-22T21:05:43.710Z,99023.65
2018-03-22T21:08:10.138Z,99031.14
2018-03-22T21:10:36.572Z,99021.05
2018-03-22T21:13:02.949Z,99007.20
2018-03-22T21:15:29.409Z,99018.27
2018-03-22T21:17:55.873Z,99024.96
2018-03-22T21:20:22.261Z,99032.61
2018-03-22T21:22:48.790Z,99023.98
2018-03-22T21:25:15.209Z,99017.37
2018-03-22T21:27:41.769Z,98998.87
2018-03-22T21:30:08.217Z,98989.23
2018-03-22T21:32:34.654Z,98962.16
2018-03-22T21:35:01.075Z,98949.89
2018-03-22T21:37:27.520Z,98952.55
2018-03-22T21:39:53.934Z,98971.00
2018-03-22T21:42:20.382Z,98984.90
2018-03-22T21:44:46.810Z,98975.74
2018-03-22T21:47:25.563Z,98970.56
2018-03-22T21:49:52.078Z,98958.52
2018-03-22T21:52:30.873Z,98957.94
2018-03-22T21:54:57.243Z,98947.73
2018-03-22T21:57:23.643Z,98946.38
2018-03-22T21:59:49.997Z,98936.07
2018-03-22T22:02:16.420Z,98931.50
2018-03-22T22:04:42.942Z,98918.81
2018-03-22T22:07:09.382Z,98909.24
2018-03-22T22:09:35.826Z,98904.77
2018-03-22T22:12:02.315Z,98896.66
2018-03-22T22:14:28.685Z,98884.04
2018-03-22T22:16:55.125Z,98874.46
2018-03-22T22:19:21.562Z,98861.52
2018-03-22T22:21:47.954Z,98851.45
2018-03-22T22:24:14.349Z,98833.59
2018-03-22T22:26:40.779Z,98812.27
2018-03-22T22:29:07.195Z,98810.47
2018-03-22T22:31:33.607Z,98809.88
2018-03-22T22:34:00.222Z,98798.38
2018-03-22T22:36:26.621Z,98789.66
2018-03-22T22:38:53.086Z,98795.22
2018-03-22T22:41:19.489Z,98796.34
2018-03-22T22:43:45.859Z,98794.17
2018-03-22T22:46:12.220Z,98785.77
2018-03-22T22:48:38.604Z,98779.60
2018-03-22T22:51:04.962Z,98765.15
2018-03-22T22:53:31.351Z,98758.72
2018-03-22T22:55:57.850Z,98747.45
2018-03-22T22:58:24.254Z,98742.77
2018-03-22T23:00:50.645Z,98728.42
2018-03-22T23:03:17.106Z,98717.86
2018-03-22T23:05:43.502Z,98715.47
2018-03-22T23:08:09.859Z,98714.76
2018-03-22T23:10:36.344Z,98707.05
2018-03-22T23:13:02.774Z,98700.15
2018-03-22T23:15:29.132Z,98703.53
2018-03-22T23:17:55.614Z,98701.25
2018-03-22T23:20:22.014Z,98696.89
2018-03-22T23:22:48.445Z,98688.01
2018-03-22T23:25:14.899Z,98674.67
2018-03-22T23:27:41.302Z,98666.52
2018-03-22T23:30:07.672Z,98659.87
2018-03-22T23:32:34.077Z,98657.05
2018-03-22T23:35:00.433Z,98664.23
2018-03-22T23:37:26.798Z,98650.72
2018-03-22T23:39:53.209Z,98645.94
2018-03-22T23:42:19.734Z,98644.78
2018-03-22T23:44:46.173Z,98636.81
2018-03-22T23:47:12.635Z,98632.12
2018-03-22T23:49:39.058Z,98631.56
2018-03-22T23:52:05.437Z,98626.22
2018-03-22T23:54:31.838Z,98619.16
2018-03-22T23:56:58.250Z,98606.65
2018-03-22T23:59:24.633Z,98605.69
